| time (UTC) | temp F | wind direction | speed MPH | gust MPH | rain 1hr in | rain 24hr in | rain mn in | humidity % | barometer mb |
| 20260502193534 | 78 | 32 | 4.0 | 13.0 | 0.00 | 0.00 | 0.00 | 34 | 1014.3 |
| 20260502193044 | 78 | 32 | 2.0 | 13.0 | 0.00 | 0.00 | 0.00 | 37 | 1014.3 |
| 20260502192533 | 77 | 32 | 6.0 | 13.0 | 0.00 | 0.00 | 0.00 | 38 | 1014.4 |
| 20260502192031 | 77 | 32 | 5.0 | 11.0 | 0.00 | 0.00 | 0.00 | 37 | 1014.5 |
| 20260502191549 | 76 | 32 | 6.0 | 12.0 | 0.00 | 0.00 | 0.00 | 38 | 1014.5 |
| 20260502191035 | 76 | 32 | 8.0 | 12.0 | 0.00 | 0.00 | 0.00 | 36 | 1014.5 |
| 20260502190536 | 75 | 32 | 8.0 | 12.0 | 0.00 | 0.00 | 0.00 | 39 | 1014.5 |
| 20260502190045 | 75 | 32 | 7.0 | 12.0 | 0.00 | 0.00 | 0.00 | 40 | 1014.4 |
| 20260502185533 | 75 | 32 | 8.0 | 12.0 | 0.00 | 0.00 | 0.00 | 39 | 1014.4 |
| 20260502185033 | 75 | 32 | 9.0 | 12.0 | 0.00 | 0.00 | 0.00 | 39 | 1014.5 |
| 20260502184553 | 75 | 32 | 7.0 | 12.0 | 0.00 | 0.00 | 0.00 | 40 | 1014.5 |
| 20260502184034 | 75 | 32 | 7.0 | 12.0 | 0.00 | 0.00 | 0.00 | 41 | 1014.6 |
| 20260502183534 | 75 | 32 | 9.0 | 14.0 | 0.00 | 0.00 | 0.00 | 39 | 1014.6 |
| 20260502183041 | 73 | 32 | 6.0 | 14.0 | 0.00 | 0.00 | 0.00 | 40 | 1014.5 |
| 20260502182534 | 73 | 32 | 10.0 | 15.0 | 0.00 | 0.00 | 0.00 | 41 | 1014.6 |
| 20260502182036 | 73 | 32 | 10.0 | 16.0 | 0.00 | 0.00 | 0.00 | 39 | 1014.7 |
| 20260502181544 | 73 | 31 | 8.0 | 16.0 | 0.00 | 0.00 | 0.00 | 41 | 1014.8 |
| 20260502181034 | 72 | 34 | 8.0 | 14.0 | 0.00 | 0.00 | 0.00 | 42 | 1014.8 |
| 20260502180533 | 72 | 35 | 7.0 | 15.0 | 0.00 | 0.00 | 0.00 | 44 | 1014.8 |
| 20260502164030 | 65 | 30 | 9.0 | 14.0 | 0.00 | 0.00 | 0.00 | 52 | 1014.8 |
| 20260502163534 | 65 | 30 | 9.0 | 15.0 | 0.00 | 0.00 | 0.00 | 52 | 1014.8 |
| 20260502163041 | 64 | 30 | 8.0 | 15.0 | 0.00 | 0.00 | 0.00 | 53 | 1014.8 |
| 20260502162536 | 64 | 30 | 10.0 | 16.0 | 0.00 | 0.00 | 0.00 | 52 | 1015.0 |
| 20260502162033 | 64 | 30 | 10.0 | 16.0 | 0.00 | 0.00 | 0.00 | 53 | 1014.9 |
| 20260502161543 | 64 | 28 | 11.0 | 15.0 | 0.00 | 0.00 | 0.00 | 53 | 1014.9 |
| 20260502161034 | 63 | 28 | 11.0 | 15.0 | 0.00 | 0.00 | 0.00 | 53 | 1014.8 |
| 20260502160537 | 63 | 28 | 10.0 | 14.0 | 0.00 | 0.00 | 0.00 | 55 | 1014.8 |
| 20260502152034 | 61 | 355 | 7.0 | 12.0 | 0.00 | 0.00 | 0.00 | 57 | 1014.6 |
| 20260502151540 | 60 | 355 | 8.0 | 12.0 | 0.00 | 0.00 | 0.00 | 57 | 1014.6 |
| 20260502151033 | 60 | 355 | 8.0 | 13.0 | 0.00 | 0.00 | 0.00 | 56 | 1014.7 |
| 20260502150533 | 60 | 355 | 8.0 | 13.0 | 0.00 | 0.00 | 0.00 | 56 | 1014.6 |
| 20260502130530 | 55 | 355 | 4.0 | 9.0 | 0.00 | 0.00 | 0.00 | 65 | 1014.3 |
| 20260502123537 | 54 | 355 | 2.0 | 4.0 | 0.00 | 0.00 | 0.00 | 67 | 1014.2 |
| 20260502123050 | 54 | 355 | 2.0 | 5.0 | 0.00 | 0.00 | 0.00 | 66 | 1014.3 |
| 20260502122533 | 55 | 355 | 2.0 | 8.0 | 0.00 | 0.00 | 0.00 | 65 | 1014.2 |
| 20260502122037 | 55 | 355 | 4.0 | 8.0 | 0.00 | 0.00 | 0.00 | 65 | 1014.1 |
| 20260502121544 | 55 | 355 | 3.0 | 8.0 | 0.00 | 0.00 | 0.00 | 65 | 1014.0 |
| 20260502121034 | 55 | 355 | 2.0 | 5.0 | 0.00 | 0.00 | 0.00 | 66 | 1013.9 |
| 20260502120534 | 55 | 355 | 2.0 | 5.0 | 0.00 | 0.00 | 0.00 | 66 | 1014.0 |
| 20260502115533 | 55 | 355 | 2.0 | 11.0 | 0.00 | 0.00 | 0.00 | 65 | 1014.0 |
| 20260502115033 | 55 | 355 | 5.0 | 11.0 | 0.00 | 0.00 | 0.00 | 66 | 1013.9 |
| 20260502114546 | 54 | 355 | 5.0 | 10.0 | 0.00 | 0.00 | 0.00 | 67 | 1013.8 |
| 20260502114033 | 54 | 355 | 3.0 | 9.0 | 0.00 | 0.00 | 0.00 | 67 | 1014.0 |
| 20260502113533 | 54 | 355 | 0.0 | 9.0 | 0.00 | 0.00 | 0.00 | 68 | 1013.8 |
| 20260502113042 | 54 | 0 | 0.0 | 3.0 | 0.00 | 0.00 | 0.00 | 68 | 1013.9 |
| 20260502112535 | 54 | 0 | 0.0 | 3.0 | 0.00 | 0.00 | 0.00 | 68 | 1014.0 |
| 20260502112032 | 53 | 0 | 0.0 | 4.0 | 0.00 | 0.00 | 0.00 | 68 | 1014.1 |
| 20260502111600 | 54 | 0 | 1.0 | 4.0 | 0.00 | 0.00 | 0.00 | 68 | 1014.0 |
| 20260502111034 | 54 | 0 | 0.0 | 1.0 | 0.00 | 0.00 | 0.00 | 67 | 1014.1 |
| 20260502110534 | 54 | 0 | 0.0 | 5.0 | 0.00 | 0.00 | 0.00 | 66 | 1014.2 |
| 20260502110041 | 55 | 355 | 2.0 | 5.0 | 0.00 | 0.00 | 0.00 | 66 | 1014.2 |
| 20260502105534 | 55 | 355 | 3.0 | 5.0 | 0.00 | 0.00 | 0.00 | 65 | 1014.2 |
| 20260502105033 | 55 | 355 | 0.0 | 5.0 | 0.00 | 0.00 | 0.00 | 65 | 1014.2 |
| 20260502104540 | 56 | 355 | 3.0 | 5.0 | 0.00 | 0.00 | 0.00 | 64 | 1014.2 |
| 20260502104033 | 56 | 355 | 0.0 | 5.0 | 0.00 | 0.00 | 0.00 | 63 | 1014.2 |
| 20260502103533 | 56 | 0 | 0.0 | 5.0 | 0.00 | 0.00 | 0.00 | 63 | 1014.2 |
| 20260502103052 | 56 | 355 | 2.0 | 5.0 | 0.00 | 0.00 | 0.00 | 63 | 1014.3 |
| 20260502102534 | 56 | 355 | 3.0 | 5.0 | 0.00 | 0.00 | 0.00 | 62 | 1014.1 |
| 20260502102033 | 56 | 355 | 3.0 | 5.0 | 0.00 | 0.00 | 0.00 | 63 | 1014.1 |
| 20260502101542 | 56 | 355 | 3.0 | 5.0 | 0.00 | 0.00 | 0.00 | 62 | 1014.1 |
| 20260502101034 | 57 | 355 | 1.0 | 4.0 | 0.00 | 0.00 | 0.00 | 61 | 1014.0 |
| 20260502100534 | 56 | 0 | 1.0 | 3.0 | 0.00 | 0.00 | 0.00 | 62 | 1014.1 |
| 20260502091033 | 58 | 355 | 3.0 | 6.0 | 0.00 | 0.00 | 0.00 | 60 | 1013.8 |
| 20260502090535 | 58 | 355 | 2.0 | 6.0 | 0.00 | 0.00 | 0.00 | 59 | 1014.0 |
| 20260502071037 | 59 | 355 | 5.0 | 9.0 | 0.00 | 0.00 | 0.00 | 60 | 1014.4 |
| 20260502070535 | 59 | 355 | 5.0 | 11.0 | 0.00 | 0.00 | 0.00 | 60 | 1014.3 |
| 20260502070049 | 59 | 355 | 5.0 | 11.0 | 0.00 | 0.00 | 0.00 | 59 | 1014.3 |
| 20260502065535 | 60 | 355 | 8.0 | 11.0 | 0.00 | 0.00 | 0.00 | 57 | 1014.3 |
| 20260502065033 | 60 | 355 | 6.0 | 11.0 | 0.00 | 0.00 | 0.00 | 58 | 1014.3 |
| 20260502064548 | 59 | 355 | 5.0 | 11.0 | 0.00 | 0.00 | 0.00 | 58 | 1014.3 |
| 20260502064034 | 60 | 355 | 4.0 | 8.0 | 0.00 | 0.00 | 0.00 | 57 | 1014.3 |
| 20260502063534 | 60 | 355 | 5.0 | 9.0 | 0.00 | 0.00 | 0.00 | 55 | 1014.2 |
| 20260502063048 | 61 | 355 | 3.0 | 9.0 | 0.00 | 0.00 | 0.00 | 54 | 1014.3 |
| 20260502062534 | 62 | 355 | 5.0 | 9.0 | 0.00 | 0.00 | 0.00 | 53 | 1014.3 |
| 20260502062033 | 62 | 355 | 4.0 | 8.0 | 0.00 | 0.00 | 0.00 | 52 | 1014.3 |
| 20260502061544 | 62 | 355 | 3.0 | 6.0 | 0.00 | 0.00 | 0.00 | 52 | 1014.3 |
| 20260502061034 | 63 | 355 | 4.0 | 8.0 | 0.00 | 0.00 | 0.00 | 51 | 1014.4 |
| 20260502060535 | 63 | 355 | 4.0 | 8.0 | 0.00 | 0.00 | 0.00 | 51 | 1014.3 |
| 20260502060050 | 63 | 355 | 4.0 | 8.0 | 0.00 | 0.00 | 0.00 | 50 | 1014.3 |
| 20260502055534 | 63 | 355 | 4.0 | 8.0 | 0.00 | 0.00 | 0.00 | 50 | 1014.4 |
| 20260502055035 | 63 | 355 | 4.0 | 8.0 | 0.00 | 0.00 | 0.00 | 50 | 1014.3 |
| 20260502054542 | 64 | 355 | 4.0 | 8.0 | 0.00 | 0.00 | 0.00 | 49 | 1014.4 |
| 20260502054036 | 64 | 355 | 4.0 | 9.0 | 0.00 | 0.00 | 0.00 | 48 | 1014.3 |
| 20260502053533 | 64 | 355 | 5.0 | 9.0 | 0.00 | 0.00 | 0.00 | 48 | 1014.4 |
| 20260502053047 | 64 | 355 | 4.0 | 9.0 | 0.00 | 0.00 | 0.00 | 48 | 1014.4 |
| 20260502052533 | 64 | 355 | 4.0 | 8.0 | 0.00 | 0.00 | 0.00 | 48 | 1014.3 |
| 20260502052038 | 64 | 355 | 4.0 | 9.0 | 0.00 | 0.00 | 0.00 | 47 | 1014.3 |
| 20260502051555 | 64 | 355 | 4.0 | 9.0 | 0.00 | 0.00 | 0.00 | 47 | 1014.3 |
| 20260502051033 | 64 | 355 | 4.0 | 8.0 | 0.00 | 0.00 | 0.00 | 48 | 1014.2 |
| 20260502050535 | 63 | 352 | 4.0 | 6.0 | 0.00 | 0.00 | 0.00 | 50 | 1014.3 |
| 20260502050048 | 63 | 355 | 4.0 | 5.0 | 0.00 | 0.00 | 0.00 | 51 | 1014.3 |
| 20260502045534 | 63 | 355 | 3.0 | 4.0 | 0.00 | 0.00 | 0.00 | 51 | 1014.2 |
| 20260502045034 | 63 | 355 | 2.0 | 5.0 | 0.00 | 0.00 | 0.00 | 51 | 1014.3 |
| 20260502044549 | 63 | 355 | 3.0 | 8.0 | 0.00 | 0.00 | 0.00 | 50 | 1014.3 |
| 20260502044033 | 63 | 355 | 3.0 | 9.0 | 0.00 | 0.00 | 0.00 | 49 | 1014.4 |
| 20260502043534 | 64 | 355 | 5.0 | 9.0 | 0.00 | 0.00 | 0.00 | 48 | 1014.5 |
| 20260502043041 | 64 | 355 | 4.0 | 6.0 | 0.00 | 0.00 | 0.00 | 48 | 1014.4 |
| 20260502042534 | 63 | 355 | 4.0 | 6.0 | 0.00 | 0.00 | 0.00 | 50 | 1014.4 |
| 20260502042034 | 62 | 355 | 4.0 | 6.0 | 0.00 | 0.00 | 0.00 | 51 | 1014.3 |
| 20260502041548 | 62 | 355 | 4.0 | 6.0 | 0.00 | 0.00 | 0.00 | 51 | 1014.3 |
| 20260502041035 | 62 | 355 | 4.0 | 6.0 | 0.00 | 0.00 | 0.00 | 52 | 1014.4 |
| 20260502040533 | 63 | 355 | 4.0 | 6.0 | 0.00 | 0.00 | 0.00 | 51 | 1014.2 |
| 20260502040052 | 63 | 355 | 4.0 | 8.0 | 0.00 | 0.00 | 0.00 | 51 | 1014.2 |
| 20260502035533 | 63 | 355 | 4.0 | 10.0 | 0.00 | 0.00 | 0.00 | 50 | 1014.3 |
| 20260502035034 | 64 | 355 | 7.0 | 10.0 | 0.00 | 0.00 | 0.00 | 48 | 1014.2 |
| 20260502034554 | 64 | 355 | 5.0 | 10.0 | 0.00 | 0.00 | 0.00 | 47 | 1014.3 |
| 20260502034034 | 64 | 355 | 6.0 | 10.0 | 0.00 | 0.00 | 0.00 | 47 | 1014.3 |
| 20260502033533 | 65 | 355 | 7.0 | 10.0 | 0.00 | 0.00 | 0.00 | 46 | 1014.2 |
| 20260502033047 | 65 | 355 | 6.0 | 9.0 | 0.00 | 0.00 | 0.00 | 46 | 1014.2 |
| 20260502032534 | 64 | 355 | 5.0 | 8.0 | 0.00 | 0.00 | 0.00 | 48 | 1014.1 |
| 20260502032036 | 63 | 355 | 4.0 | 6.0 | 0.00 | 0.00 | 0.00 | 50 | 1014.1 |
| 20260502031548 | 63 | 355 | 3.0 | 5.0 | 0.00 | 0.00 | 0.00 | 51 | 1014.1 |
| 20260502031034 | 63 | 355 | 3.0 | 5.0 | 0.00 | 0.00 | 0.00 | 51 | 1014.1 |
| 20260502030534 | 64 | 355 | 3.0 | 5.0 | 0.00 | 0.00 | 0.00 | 51 | 1013.9 |
| 20260502030052 | 64 | 355 | 4.0 | 6.0 | 0.00 | 0.00 | 0.00 | 50 | 1013.9 |
| 20260502025533 | 65 | 355 | 4.0 | 8.0 | 0.00 | 0.00 | 0.00 | 49 | 1013.9 |
| 20260502025034 | 65 | 355 | 4.0 | 8.0 | 0.00 | 0.00 | 0.00 | 49 | 1013.9 |
| 20260502024551 | 66 | 355 | 5.0 | 8.0 | 0.00 | 0.00 | 0.00 | 49 | 1013.8 |
| 20260502024034 | 66 | 355 | 5.0 | 8.0 | 0.00 | 0.00 | 0.00 | 48 | 1013.9 |
| 20260502023534 | 67 | 355 | 4.0 | 8.0 | 0.00 | 0.00 | 0.00 | 47 | 1013.8 |
| 20260502023050 | 67 | 355 | 1.0 | 6.0 | 0.00 | 0.00 | 0.00 | 47 | 1013.9 |
| 20260502022534 | 68 | 355 | 3.0 | 6.0 | 0.00 | 0.00 | 0.00 | 47 | 1013.8 |
| 20260502022035 | 68 | 355 | 1.0 | 5.0 | 0.00 | 0.00 | 0.00 | 45 | 1013.7 |
| 20260502021542 | 69 | 355 | 2.0 | 5.0 | 0.00 | 0.00 | 0.00 | 46 | 1013.8 |
| 20260502021034 | 69 | 355 | 3.0 | 6.0 | 0.00 | 0.00 | 0.00 | 46 | 1013.9 |
| 20260502020534 | 70 | 355 | 3.0 | 6.0 | 0.00 | 0.00 | 0.00 | 46 | 1013.8 |
| 20260502020048 | 71 | 355 | 4.0 | 6.0 | 0.00 | 0.00 | 0.00 | 44 | 1014.0 |
| 20260502015537 | 72 | 355 | 4.0 | 6.0 | 0.00 | 0.00 | 0.00 | 42 | 1013.9 |
| 20260502015035 | 74 | 355 | 3.0 | 8.0 | 0.00 | 0.00 | 0.00 | 38 | 1013.9 |
| 20260502014550 | 75 | 355 | 4.0 | 10.0 | 0.00 | 0.00 | 0.00 | 35 | 1014.0 |
| 20260502014036 | 76 | 355 | 6.0 | 12.0 | 0.00 | 0.00 | 0.00 | 31 | 1014.1 |
| 20260502013533 | 76 | 355 | 8.0 | 12.0 | 0.00 | 0.00 | 0.00 | 30 | 1014.2 |
| 20260502013050 | 76 | 355 | 9.0 | 12.0 | 0.00 | 0.00 | 0.00 | 29 | 1014.2 |
| 20260502012533 | 77 | 355 | 6.0 | 10.0 | 0.00 | 0.00 | 0.00 | 28 | 1014.2 |
| 20260502012033 | 77 | 355 | 7.0 | 11.0 | 0.00 | 0.00 | 0.00 | 27 | 1014.2 |
| 20260502011545 | 77 | 355 | 7.0 | 12.0 | 0.00 | 0.00 | 0.00 | 27 | 1014.1 |
| 20260502011034 | 77 | 355 | 8.0 | 12.0 | 0.00 | 0.00 | 0.00 | 27 | 1014.1 |
| 20260502010534 | 77 | 355 | 10.0 | 12.0 | 0.00 | 0.00 | 0.00 | 26 | 1014.1 |
| 20260502010051 | 78 | 355 | 6.0 | 11.0 | 0.00 | 0.00 | 0.00 | 26 | 1014.1 |
| 20260502005535 | 78 | 355 | 7.0 | 13.0 | 0.00 | 0.00 | 0.00 | 26 | 1014.1 |
| 20260502005035 | 78 | 355 | 8.0 | 14.0 | 0.00 | 0.00 | 0.00 | 25 | 1014.2 |
| 20260502004603 | 78 | 355 | 9.0 | 14.0 | 0.00 | 0.00 | 0.00 | 25 | 1014.3 |
| 20260502004034 | 78 | 355 | 9.0 | 13.0 | 0.00 | 0.00 | 0.00 | 25 | 1014.2 |
| 20260502003534 | 78 | 355 | 7.0 | 11.0 | 0.00 | 0.00 | 0.00 | 26 | 1014.3 |
| 20260502003045 | 78 | 355 | 4.0 | 13.0 | 0.00 | 0.00 | 0.00 | 27 | 1014.4 |
| 20260502002533 | 78 | 355 | 7.0 | 13.0 | 0.00 | 0.00 | 0.00 | 26 | 1014.4 |
| 20260502002033 | 79 | 355 | 7.0 | 13.0 | 0.00 | 0.00 | 0.00 | 25 | 1014.3 |
| 20260502001546 | 79 | 355 | 8.0 | 12.0 | 0.00 | 0.00 | 0.00 | 24 | 1014.3 |
| 20260502001036 | 79 | 352 | 5.0 | 12.0 | 0.00 | 0.00 | 0.00 | 25 | 1014.3 |
| 20260502000534 | 79 | 355 | 8.0 | 12.0 | 0.00 | 0.00 | 0.00 | 25 | 1014.4 |
| 20260502000054 | 79 | 352 | 5.0 | 12.0 | 0.00 | 0.00 | 0.00 | 24 | 1014.4 |
| 20260501235538 | 79 | 352 | 5.0 | 12.0 | 0.00 | 0.00 | 0.00 | 24 | 1014.4 |
| 20260501235035 | 79 | 352 | 4.0 | 11.0 | 0.00 | 0.00 | 0.00 | 23 | 1014.5 |
| 20260501234545 | 79 | 352 | 8.0 | 12.0 | 0.00 | 0.00 | 0.00 | 23 | 1014.5 |
| 20260501234034 | 79 | 351 | 7.0 | 12.0 | 0.00 | 0.00 | 0.00 | 24 | 1014.6 |
| 20260501233537 | 79 | 351 | 7.0 | 12.0 | 0.00 | 0.00 | 0.00 | 25 | 1014.6 |
| 20260501233047 | 79 | 351 | 4.0 | 9.0 | 0.00 | 0.00 | 0.00 | 24 | 1014.7 |
| 20260501232534 | 79 | 351 | 1.0 | 6.0 | 0.00 | 0.00 | 0.00 | 24 | 1014.7 |
| 20260501232034 | 78 | 351 | 2.0 | 11.0 | 0.00 | 0.00 | 0.00 | 24 | 1014.8 |
| 20260501231541 | 78 | 351 | 6.0 | 11.0 | 0.00 | 0.00 | 0.00 | 25 | 1014.8 |
| 20260501231048 | 78 | 351 | 5.0 | 13.0 | 0.00 | 0.00 | 0.00 | 25 | 1014.9 |
| 20260501230534 | 78 | 351 | 8.0 | 13.0 | 0.00 | 0.00 | 0.00 | 25 | 1014.9 |
| 20260501230048 | 78 | 351 | 6.0 | 10.0 | 0.00 | 0.00 | 0.00 | 25 | 1014.9 |
| 20260501225534 | 78 | 351 | 3.0 | 12.0 | 0.00 | 0.00 | 0.00 | 25 | 1015.1 |
| 20260501225033 | 78 | 351 | 5.0 | 12.0 | 0.00 | 0.00 | 0.00 | 24 | 1015.1 |
| 20260501224547 | 78 | 351 | 4.0 | 13.0 | 0.00 | 0.00 | 0.00 | 24 | 1015.2 |
| 20260501224034 | 78 | 0 | 7.0 | 13.0 | 0.00 | 0.00 | 0.00 | 25 | 1015.4 |
| 20260501223533 | 78 | 355 | 6.0 | 12.0 | 0.00 | 0.00 | 0.00 | 26 | 1015.5 |
| 20260501223049 | 77 | 355 | 7.0 | 12.0 | 0.00 | 0.00 | 0.00 | 25 | 1015.6 |
| 20260501222534 | 78 | 355 | 6.0 | 12.0 | 0.00 | 0.00 | 0.00 | 26 | 1015.8 |
| 20260501222034 | 77 | 355 | 5.0 | 11.0 | 0.00 | 0.00 | 0.00 | 27 | 1015.9 |
| 20260501221550 | 77 | 355 | 5.0 | 11.0 | 0.00 | 0.00 | 0.00 | 24 | 1015.9 |
| 20260501221038 | 77 | 355 | 5.0 | 11.0 | 0.00 | 0.00 | 0.00 | 25 | 1015.9 |
| 20260501220534 | 77 | 355 | 5.0 | 11.0 | 0.00 | 0.00 | 0.00 | 26 | 1015.9 |
| 20260501220058 | 77 | 355 | 8.0 | 11.0 | 0.00 | 0.00 | 0.00 | 26 | 1016.0 |
| 20260501215534 | 76 | 355 | 5.0 | 12.0 | 0.00 | 0.00 | 0.00 | 27 | 1016.1 |
| 20260501215034 | 76 | 355 | 6.0 | 12.0 | 0.00 | 0.00 | 0.00 | 26 | 1016.1 |
| 20260501214549 | 77 | 355 | 6.0 | 12.0 | 0.00 | 0.00 | 0.00 | 27 | 1016.3 |
| 20260501214034 | 77 | 352 | 7.0 | 12.0 | 0.00 | 0.00 | 0.00 | 26 | 1016.3 |
| 20260501213534 | 77 | 352 | 5.0 | 11.0 | 0.00 | 0.00 | 0.00 | 27 | 1016.4 |
| 20260501213109 | 77 | 352 | 5.0 | 11.0 | 0.00 | 0.00 | 0.00 | 27 | 1016.5 |
| 20260501212534 | 77 | 352 | 7.0 | 12.0 | 0.00 | 0.00 | 0.00 | 27 | 1016.6 |
| 20260501212033 | 77 | 360 | 5.0 | 12.0 | 0.00 | 0.00 | 0.00 | 26 | 1016.7 |
| 20260501211546 | 77 | 360 | 6.0 | 12.0 | 0.00 | 0.00 | 0.00 | 27 | 1016.7 |
| 20260501211034 | 77 | 355 | 5.0 | 10.0 | 0.00 | 0.00 | 0.00 | 27 | 1016.7 |
| 20260501210534 | 77 | 355 | 4.0 | 10.0 | 0.00 | 0.00 | 0.00 | 28 | 1016.6 |
| 20260501210044 | 76 | 355 | 3.0 | 8.0 | 0.00 | 0.00 | 0.00 | 30 | 1016.8 |
| 20260501205534 | 76 | 355 | 4.0 | 13.0 | 0.00 | 0.00 | 0.00 | 27 | 1016.7 |
| 20260501205037 | 76 | 355 | 7.0 | 13.0 | 0.00 | 0.00 | 0.00 | 27 | 1016.7 |
| 20260501204546 | 76 | 360 | 5.0 | 12.0 | 0.00 | 0.00 | 0.00 | 28 | 1016.7 |
| 20260501204035 | 76 | 360 | 5.0 | 12.0 | 0.00 | 0.00 | 0.00 | 27 | 1016.9 |
| 20260501203533 | 76 | 360 | 5.0 | 15.0 | 0.00 | 0.00 | 0.00 | 27 | 1017.0 |
| 20260501203052 | 76 | 0 | 1.0 | 15.0 | 0.00 | 0.00 | 0.00 | 27 | 1017.0 |
| 20260501202534 | 76 | 360 | 8.0 | 15.0 | 0.00 | 0.00 | 0.00 | 27 | 1017.1 |
| 20260501202036 | 76 | 360 | 9.0 | 13.0 | 0.00 | 0.00 | 0.00 | 27 | 1017.0 |
| 20260501201550 | 76 | 360 | 6.0 | 14.0 | 0.00 | 0.00 | 0.00 | 26 | 1017.1 |
| 20260501201034 | 76 | 360 | 8.0 | 14.0 | 0.00 | 0.00 | 0.00 | 27 | 1017.1 |
| 20260501200537 | 75 | 360 | 7.0 | 13.0 | 0.00 | 0.00 | 0.00 | 27 | 1017.0 |
| 20260501200047 | 75 | 360 | 4.0 | 16.0 | 0.00 | 0.00 | 0.00 | 27 | 1017.1 |
| 20260501195534 | 75 | 360 | 11.0 | 16.0 | 0.00 | 0.00 | 0.00 | 26 | 1017.1 |
| 20260501195034 | 75 | 355 | 9.0 | 13.0 | 0.00 | 0.00 | 0.00 | 26 | 1017.2 |
| 20260501194553 | 75 | 352 | 7.0 | 13.0 | 0.00 | 0.00 | 0.00 | 27 | 1017.1 |
| 20260501194033 | 74 | 355 | 5.0 | 10.0 | 0.00 | 0.00 | 0.00 | 27 | 1017.2 |